createdAt,value
2019-02-26T00:00:27.514Z,10.33
2019-02-26T00:02:59.316Z,8.57
2019-02-26T00:05:28.440Z,11.10
2019-02-26T00:07:57.942Z,9.27
2019-02-26T00:10:28.992Z,8.17
2019-02-26T00:12:57.459Z,9.70
2019-02-26T00:15:26.122Z,7.07
2019-02-26T00:17:54.750Z,8.63
2019-02-26T00:20:23.319Z,11.97
2019-02-26T00:22:53.551Z,13.97
2019-02-26T00:25:22.347Z,10.20
2019-02-26T00:27:52.453Z,10.17
2019-02-26T00:30:21.320Z,10.93
2019-02-26T00:32:50.023Z,9.87
2019-02-26T00:35:20.702Z,10.13
2019-02-26T00:37:51.204Z,11.07
2019-02-26T00:40:20.148Z,11.87
2019-02-26T00:42:52.226Z,11.40
2019-02-26T00:45:22.246Z,11.03
2019-02-26T00:47:49.736Z,10.33
2019-02-26T00:50:18.438Z,10.47
2019-02-26T00:52:47.102Z,10.83
2019-02-26T00:55:15.807Z,11.03
2019-02-26T00:57:44.443Z,11.80
2019-02-26T01:00:17.202Z,10.67
2019-02-26T01:02:45.911Z,11.67
2019-02-26T01:05:16.115Z,9.87
2019-02-26T01:07:47.388Z,12.90
2019-02-26T01:10:18.127Z,10.83
2019-02-26T01:12:46.227Z,12.07
2019-02-26T01:15:19.334Z,10.20
2019-02-26T01:17:48.043Z,9.60
2019-02-26T01:20:21.893Z,9.40
2019-02-26T01:22:49.823Z,8.77
2019-02-26T01:25:20.540Z,12.17
2019-02-26T01:27:51.085Z,8.97
2019-02-26T01:30:23.565Z,10.30
2019-02-26T01:32:50.605Z,10.47
2019-02-26T01:35:19.311Z,11.13
2019-02-26T01:37:49.364Z,10.63
2019-02-26T01:40:21.068Z,8.73
2019-02-26T01:42:52.224Z,10.27
2019-02-26T01:45:20.044Z,12.20
2019-02-26T01:47:51.018Z,10.47
2019-02-26T01:50:19.995Z,8.77
2019-02-26T01:52:50.002Z,9.80
2019-02-26T01:55:20.609Z,7.97
2019-02-26T01:57:49.226Z,9.20
2019-02-26T02:00:20.987Z,9.47
2019-02-26T02:02:49.610Z,9.30
2019-02-26T02:05:19.662Z,9.40
2019-02-26T02:07:51.158Z,9.50
2019-02-26T02:10:18.999Z,8.77
2019-02-26T02:12:47.559Z,7.77
2019-02-26T02:15:20.488Z,10.33
2019-02-26T02:17:46.787Z,8.30
2019-02-26T03:59:13.943Z,12.57
2019-02-26T04:01:42.382Z,13.27
2019-02-26T04:04:10.837Z,12.80
2019-02-26T04:06:41.236Z,13.40
2019-02-26T04:09:11.095Z,12.67
2019-02-26T04:11:44.779Z,11.03
2019-02-26T04:14:12.585Z,10.43
2019-02-26T04:16:43.449Z,11.93
2019-02-26T04:19:10.986Z,13.20
2019-02-26T04:22:18.766Z,10.83
2019-02-26T04:24:46.541Z,11.33
2019-02-26T04:27:39.305Z,9.10
2019-02-26T04:30:38.992Z,10.33
2019-02-26T04:33:11.636Z,12.27
2019-02-26T04:35:44.900Z,9.23
2019-02-26T04:38:23.371Z,10.53
2019-02-26T04:41:00.213Z,10.43
2019-02-26T04:43:41.415Z,12.27
2019-02-26T04:46:33.560Z,10.53
2019-02-26T04:49:01.279Z,9.40
2019-02-26T04:51:29.790Z,11.30
2019-02-26T04:53:59.488Z,8.83
2019-02-26T04:56:31.308Z,9.70
2019-02-26T04:58:58.812Z,10.93
2019-02-26T05:01:27.387Z,10.07
2019-02-26T05:03:56.103Z,13.27
2019-02-26T05:06:24.691Z,12.27
2019-02-26T05:08:55.990Z,10.90
2019-02-26T05:11:31.782Z,10.50
2019-02-26T05:13:53.769Z,9.50
2019-02-26T05:16:25.982Z,10.20
2019-02-26T05:18:54.971Z,12.17
2019-02-26T05:21:24.449Z,11.87
2019-02-26T05:23:55.014Z,10.10
2019-02-26T05:26:23.088Z,12.37
2019-02-26T05:28:51.597Z,8.63
2019-02-26T05:31:20.427Z,10.00
2019-02-26T05:33:50.140Z,12.07
2019-02-26T05:36:19.139Z,11.20
2019-02-26T05:38:49.287Z,11.57
2019-02-26T05:41:17.988Z,12.17
2019-02-26T05:43:49.277Z,10.97
2019-02-26T05:46:18.892Z,9.60
2019-02-26T05:48:48.669Z,8.77
2019-02-26T05:51:17.152Z,10.60
2019-02-26T05:53:45.602Z,10.97
2019-02-26T05:56:15.120Z,12.33
2019-02-26T05:58:46.978Z,9.83
2019-02-26T06:01:16.366Z,10.47
2019-02-26T06:03:46.765Z,9.53
2019-02-26T06:06:15.007Z,12.33
2019-02-26T06:08:43.465Z,11.57
2019-02-26T06:11:11.998Z,9.57
2019-02-26T06:13:43.093Z,11.83
2019-02-26T06:16:10.722Z,11.50
2019-02-26T06:18:41.371Z,11.93
2019-02-26T06:21:09.533Z,9.97
2019-02-26T06:23:39.322Z,13.00
2019-02-26T06:26:13.295Z,9.00
2019-02-26T06:28:40.975Z,13.33
2019-02-26T06:31:11.541Z,10.43
2019-02-26T06:33:40.801Z,11.83
2019-02-26T06:36:09.164Z,13.70
2019-02-26T06:38:37.608Z,12.40
2019-02-26T06:41:06.064Z,10.17
2019-02-26T06:43:37.478Z,10.10
2019-02-26T06:46:05.710Z,12.47
2019-02-26T06:48:34.959Z,9.90
2019-02-26T06:51:04.593Z,10.27
2019-02-26T06:53:33.607Z,10.83
2019-02-26T06:56:02.051Z,9.80
2019-02-26T06:58:30.519Z,11.20
2019-02-26T07:00:59.040Z,12.03
2019-02-26T07:03:27.482Z,9.23
2019-02-26T07:05:55.952Z,11.00
2019-02-26T07:08:26.123Z,10.77
2019-02-26T07:10:54.591Z,13.17
2019-02-26T07:13:23.033Z,8.67
2019-02-26T07:15:51.470Z,9.37
2019-02-26T07:18:19.952Z,10.83
2019-02-26T07:20:52.034Z,11.50
2019-02-26T07:23:19.073Z,12.33
2019-02-26T07:25:47.527Z,10.73
2019-02-26T07:28:17.672Z,11.83
2019-02-26T07:30:46.900Z,10.20
2019-02-26T07:33:15.465Z,8.83
2019-02-26T07:35:44.022Z,10.57
2019-02-26T07:38:12.535Z,9.80
2019-02-26T07:40:40.986Z,8.87
2019-02-26T07:43:12.253Z,9.70
2019-02-26T07:45:39.670Z,13.57
2019-02-26T07:48:08.186Z,9.27
2019-02-26T07:50:39.675Z,11.10
2019-02-26T07:53:06.798Z,16.53
2019-02-26T07:55:35.878Z,14.03
2019-02-26T07:58:06.201Z,13.20
2019-02-26T08:00:37.730Z,12.87
2019-02-26T08:03:06.098Z,9.30
2019-02-26T08:05:34.546Z,8.03
2019-02-26T08:08:03.019Z,9.53
2019-02-26T08:10:35.092Z,9.23
2019-02-26T08:13:03.414Z,7.80
2019-02-26T08:15:32.852Z,7.00
2019-02-26T08:18:03.447Z,7.33
2019-02-26T08:20:33.506Z,7.83
2019-02-26T08:23:02.495Z,8.40
2019-02-26T08:25:30.940Z,7.47
2019-02-26T08:28:01.301Z,7.73
2019-02-26T08:30:29.811Z,10.33
2019-02-26T08:32:59.023Z,7.67
2019-02-26T08:35:28.599Z,8.20
2019-02-26T08:37:57.054Z,8.97
2019-02-26T08:40:25.578Z,8.33
2019-02-26T08:42:54.051Z,9.40
2019-02-26T08:45:25.178Z,9.00
2019-02-26T08:47:52.910Z,7.53
2019-02-26T08:50:21.463Z,7.43
2019-02-26T08:52:52.397Z,8.43
2019-02-26T08:55:23.873Z,10.77
2019-02-26T08:57:51.998Z,10.00
2019-02-26T09:00:21.415Z,8.60
2019-02-26T09:02:53.786Z,9.03
2019-02-26T09:05:20.062Z,8.17
2019-02-26T09:07:50.514Z,7.23
2019-02-26T09:10:21.273Z,8.37
2019-02-26T09:12:51.671Z,8.20
2019-02-26T09:15:20.718Z,8.77
2019-02-26T09:17:49.306Z,9.27
2019-02-26T09:20:19.982Z,7.97
2019-02-26T09:22:50.900Z,9.13
2019-02-26T09:25:21.039Z,8.83
2019-02-26T09:27:49.035Z,9.07
2019-02-26T09:30:19.300Z,8.23
2019-02-26T09:32:48.019Z,8.40
2019-02-26T09:35:25.356Z,7.28
2019-02-26T09:37:52.705Z,8.15
2019-02-26T09:40:23.555Z,9.90
2019-02-26T09:42:54.383Z,7.00
2019-02-26T09:45:28.616Z,10.82
2019-02-26T09:47:57.178Z,10.90
2019-02-26T09:50:24.921Z,8.28
2019-02-26T09:52:55.776Z,10.50
2019-02-26T09:55:23.619Z,6.87
2019-02-26T09:57:52.122Z,7.37
2019-02-26T10:00:23.637Z,6.87
2019-02-26T10:02:52.191Z,8.40
2019-02-26T10:05:21.386Z,7.25
2019-02-26T10:07:53.630Z,8.38
2019-02-26T10:10:27.651Z,7.42
2019-02-26T10:12:56.543Z,6.85
2019-02-26T10:15:24.516Z,7.47
2019-02-26T10:17:52.974Z,6.60
2019-02-26T10:20:25.299Z,7.08
2019-02-26T10:22:55.050Z,7.92
2019-02-26T10:25:25.720Z,7.45
2019-02-26T10:27:53.634Z,8.50
2019-02-26T10:30:22.348Z,7.85
2019-02-26T10:32:51.142Z,6.92
2019-02-26T10:35:32.371Z,8.53
2019-02-26T10:37:57.061Z,8.68
2019-02-26T10:40:34.658Z,9.80
2019-02-26T10:42:57.042Z,10.08
2019-02-26T10:45:28.583Z,8.38
2019-02-26T10:47:59.412Z,7.72
2019-02-26T10:50:31.681Z,8.23
2019-02-26T10:53:06.918Z,9.83
2019-02-26T10:55:35.324Z,8.55
2019-02-26T10:58:03.618Z,7.70
2019-02-26T11:00:34.098Z,9.28
2019-02-26T11:03:00.997Z,7.87
2019-02-26T11:05:29.804Z,7.47
2019-02-26T11:08:01.466Z,6.75
2019-02-26T11:10:28.666Z,7.55
2019-02-26T11:12:59.429Z,7.20
2019-02-26T11:15:30.173Z,8.60
2019-02-26T11:17:57.666Z,7.28
2019-02-26T11:20:29.400Z,7.37
2019-02-26T11:22:56.887Z,6.95
2019-02-26T11:25:27.331Z,6.45
2019-02-26T11:27:55.984Z,6.33
2019-02-26T11:30:28.720Z,6.70
2019-02-26T11:32:58.618Z,6.47
2019-02-26T11:35:27.360Z,6.00
2019-02-26T11:37:57.985Z,4.83
2019-02-26T11:40:30.274Z,5.70
2019-02-26T11:42:59.820Z,4.60
2019-02-26T11:45:27.887Z,6.08
2019-02-26T11:47:58.078Z,4.62
2019-02-26T11:50:28.033Z,3.85
2019-02-26T11:52:57.425Z,4.72
2019-02-26T11:55:28.539Z,3.40
2019-02-26T11:57:56.151Z,3.40
2019-02-26T12:00:47.614Z,3.12
2019-02-26T12:03:15.731Z,2.70
2019-02-26T12:05:44.183Z,2.60
2019-02-26T12:08:16.373Z,2.22
2019-02-26T12:10:42.910Z,2.50
2019-02-26T12:13:11.374Z,2.30
2019-02-26T12:15:42.731Z,2.98
2019-02-26T12:18:12.657Z,2.67
2019-02-26T12:20:42.679Z,1.72
2019-02-26T12:23:11.674Z,2.00
2019-02-26T12:25:40.657Z,1.57
2019-02-26T12:28:10.778Z,1.20
2019-02-26T12:30:41.240Z,1.40
2019-02-26T12:33:11.738Z,1.30
2019-02-26T12:35:40.607Z,1.80
2019-02-26T12:38:18.311Z,0.82
2019-02-26T12:40:43.817Z,1.25
2019-02-26T12:43:11.870Z,1.17
2019-02-26T12:45:40.818Z,2.10
2019-02-26T12:48:10.094Z,1.10
2019-02-26T12:50:40.480Z,1.25
2019-02-26T12:53:12.597Z,1.00
2019-02-26T12:55:42.133Z,0.93
2019-02-26T12:58:11.256Z,0.80
2019-02-26T13:00:41.975Z,2.25
2019-02-26T13:03:12.692Z,1.67
2019-02-26T13:05:42.541Z,0.60
2019-02-26T13:08:12.712Z,0.80
2019-02-26T13:10:42.415Z,0.70
2019-02-26T13:13:10.937Z,0.90
2019-02-26T13:15:39.418Z,2.12
2019-02-26T13:18:08.014Z,1.90
2019-02-26T13:20:36.858Z,1.30
2019-02-26T13:23:17.012Z,1.37
2019-02-26T13:25:35.506Z,2.25
2019-02-26T13:28:03.982Z,1.85
2019-02-26T13:30:32.512Z,1.70
2019-02-26T13:33:04.996Z,1.98
2019-02-26T13:35:31.239Z,2.15
2019-02-26T13:38:02.024Z,2.12
2019-02-26T13:40:37.951Z,1.98
2019-02-26T13:45:29.540Z,2.15
2019-02-26T13:48:01.324Z,2.42
2019-02-26T13:50:31.387Z,1.57
2019-02-26T13:53:00.011Z,1.45
2019-02-26T13:55:28.591Z,1.70
2019-02-26T13:57:57.233Z,1.57
2019-02-26T14:00:26.997Z,1.47
2019-02-26T14:02:55.776Z,2.10
2019-02-26T14:05:24.449Z,1.60
2019-02-26T14:07:52.970Z,3.17
2019-02-26T14:10:25.691Z,1.60
2019-02-26T14:12:54.283Z,1.98
2019-02-26T14:15:26.797Z,2.77
2019-02-26T14:17:55.348Z,1.82
2019-02-26T14:20:23.950Z,2.47
2019-02-26T14:22:52.491Z,3.17
2019-02-26T14:25:21.019Z,2.47
2019-02-26T14:27:49.543Z,3.05
2019-02-26T14:30:19.354Z,3.80
2019-02-26T14:32:47.944Z,2.22
2019-02-26T14:35:16.664Z,2.87
2019-02-26T14:37:45.185Z,2.12
2019-02-26T14:40:20.816Z,2.20
2019-02-26T14:42:49.334Z,1.82
2019-02-26T14:45:26.262Z,2.30
2019-02-26T14:47:54.706Z,2.92
2019-02-26T14:50:26.151Z,1.67
2019-02-26T14:52:54.266Z,2.02
2019-02-26T14:55:22.784Z,2.30
2019-02-26T14:57:51.332Z,2.87
2019-02-26T15:00:29.054Z,3.15
2019-02-26T15:02:57.604Z,2.15
2019-02-26T15:05:26.200Z,3.00
2019-02-26T15:07:54.723Z,3.08
2019-02-26T15:10:23.336Z,7.65
2019-02-26T15:12:51.862Z,2.98
2019-02-26T15:15:20.751Z,2.87
2019-02-26T15:17:49.370Z,2.22
2019-02-26T15:20:19.932Z,2.45
2019-02-26T15:22:48.451Z,2.00
2019-02-26T15:25:25.502Z,2.65
2019-02-26T15:27:54.023Z,2.67
2019-02-26T15:30:23.088Z,2.33
2019-02-26T15:32:51.640Z,2.40
2019-02-26T15:35:20.257Z,2.35
2019-02-26T15:37:48.850Z,2.67
2019-02-26T15:40:21.998Z,2.35
2019-02-26T15:42:53.101Z,3.25
2019-02-26T15:45:25.218Z,2.35
2019-02-26T15:47:53.922Z,3.33
2019-02-26T15:50:22.768Z,3.17
2019-02-26T15:52:52.981Z,2.22
2019-02-26T15:55:32.140Z,2.00
2019-02-26T15:58:03.955Z,2.17
2019-02-26T16:00:31.041Z,2.20
2019-02-26T16:03:00.148Z,1.98
2019-02-26T16:05:34.133Z,2.22
2019-02-26T16:08:02.655Z,2.08
2019-02-26T16:10:31.202Z,2.08
2019-02-26T16:13:05.598Z,4.33
2019-02-26T16:15:35.522Z,1.50
2019-02-26T16:18:04.183Z,2.00
2019-02-26T16:20:32.952Z,2.40
2019-02-26T16:23:01.499Z,2.43
2019-02-26T16:25:30.038Z,2.43
2019-02-26T16:27:58.563Z,2.37
2019-02-26T16:30:28.351Z,2.50
2019-02-26T16:32:57.114Z,3.53
2019-02-26T16:35:25.876Z,1.67
2019-02-26T16:37:54.764Z,1.70
2019-02-26T16:40:23.359Z,2.67
2019-02-26T16:42:51.890Z,2.50
2019-02-26T16:45:28.122Z,2.10
2019-02-26T16:47:57.495Z,3.40
2019-02-26T16:50:33.732Z,1.70
2019-02-26T16:53:02.277Z,1.80
2019-02-26T16:55:31.535Z,2.20
2019-02-26T16:58:03.251Z,1.80
2019-02-26T17:00:31.710Z,2.57
2019-02-26T17:03:01.187Z,6.03
2019-02-26T17:05:30.146Z,2.43
2019-02-26T17:07:58.949Z,2.43
2019-02-26T17:10:30.314Z,2.30
2019-02-26T17:13:01.993Z,2.37
2019-02-26T17:15:29.966Z,3.60
2019-02-26T17:17:58.630Z,2.23
2019-02-26T17:20:27.121Z,1.80
2019-02-26T17:22:55.645Z,2.63
2019-02-26T17:25:27.481Z,2.13
2019-02-26T17:27:54.366Z,4.63
2019-02-26T17:30:23.819Z,1.67
2019-02-26T17:32:52.685Z,1.77
2019-02-26T17:35:21.367Z,1.70
2019-02-26T17:37:49.817Z,2.87
2019-02-26T17:40:20.366Z,2.40
2019-02-26T17:42:51.347Z,3.57
2019-02-26T17:45:21.586Z,2.93
2019-02-26T17:47:50.112Z,1.77
2019-02-26T17:50:21.322Z,3.07
2019-02-26T17:52:49.771Z,2.33
2019-02-26T17:55:18.289Z,2.90
2019-02-26T17:57:47.026Z,2.50
2019-02-26T18:00:24.678Z,3.07
2019-02-26T18:02:53.373Z,7.73
2019-02-26T18:05:21.822Z,17.03
2019-02-26T18:07:50.409Z,17.27
2019-02-26T18:10:24.454Z,15.70
2019-02-26T18:12:54.055Z,15.53
2019-02-26T18:15:22.668Z,13.37
2019-02-26T18:17:51.268Z,9.30
2019-02-26T18:20:20.922Z,8.47
2019-02-26T18:22:49.363Z,2.93
2019-02-26T18:25:20.090Z,1.53
2019-02-26T18:27:48.617Z,2.20
2019-02-26T18:30:25.391Z,3.27
2019-02-26T18:32:57.348Z,3.33
2019-02-26T18:35:24.283Z,2.97
2019-02-26T18:37:52.761Z,3.33
2019-02-26T18:40:21.275Z,3.93
2019-02-26T18:42:49.887Z,3.57
2019-02-26T18:45:21.159Z,4.50
2019-02-26T18:47:49.606Z,4.37
2019-02-26T18:50:18.053Z,5.83
2019-02-26T18:52:46.514Z,4.07
2019-02-26T18:55:19.682Z,3.67
2019-02-26T18:57:48.258Z,3.33
2019-02-26T19:00:25.640Z,5.67
2019-02-26T19:02:52.826Z,6.10
2019-02-26T19:05:21.590Z,2.33
2019-02-26T19:07:50.386Z,2.60
2019-02-26T19:10:20.963Z,3.33
2019-02-26T19:12:49.659Z,6.67
2019-02-26T19:15:24.022Z,5.83
2019-02-26T19:17:54.214Z,4.33
2019-02-26T19:20:25.634Z,3.07
2019-02-26T19:22:54.098Z,4.10
2019-02-26T19:25:22.614Z,3.40
2019-02-26T19:27:53.110Z,3.20
2019-02-26T19:30:22.657Z,7.07
2019-02-26T19:32:51.256Z,4.70
2019-02-26T19:35:19.908Z,3.97
2019-02-26T19:37:55.282Z,4.67
2019-02-26T19:40:39.014Z,4.10
2019-02-26T19:43:07.262Z,5.00
2019-02-26T19:45:35.702Z,5.10
2019-02-26T19:48:04.142Z,4.17
2019-02-26T19:50:32.986Z,5.20
2019-02-26T19:53:02.513Z,5.53
2019-02-26T19:55:37.371Z,4.73
2019-02-26T19:58:06.903Z,7.67
2019-02-26T20:00:35.606Z,6.93
2019-02-26T20:03:05.498Z,7.33
2019-02-26T20:05:34.920Z,6.27
2019-02-26T20:08:05.327Z,8.67
2019-02-26T20:10:33.694Z,7.20
2019-02-26T20:13:03.968Z,6.83
2019-02-26T20:15:32.445Z,8.17
2019-02-26T20:18:00.924Z,9.87
2019-02-26T20:20:29.440Z,8.40
2019-02-26T20:22:57.915Z,7.87
2019-02-26T20:25:26.523Z,7.53
2019-02-26T20:27:59.141Z,8.00
2019-02-26T20:30:25.198Z,7.60
2019-02-26T20:32:53.703Z,7.67
2019-02-26T20:35:22.246Z,8.13
2019-02-26T20:37:50.686Z,7.17
2019-02-26T20:40:24.243Z,5.80
2019-02-26T20:42:52.854Z,7.80
2019-02-26T20:45:22.658Z,9.13
2019-02-26T20:47:51.923Z,6.87
2019-02-26T20:50:21.777Z,6.97
2019-02-26T20:52:50.559Z,8.47
2019-02-26T20:55:30.690Z,8.47
2019-02-26T20:57:59.134Z,9.23
2019-02-26T21:00:27.647Z,8.00
2019-02-26T21:02:56.468Z,10.17
2019-02-26T21:05:25.208Z,10.63
2019-02-26T21:07:58.089Z,9.23
2019-02-26T21:10:24.016Z,10.67
2019-02-26T21:12:52.462Z,8.57
2019-02-26T21:15:26.962Z,10.53
2019-02-26T21:17:57.792Z,8.33
2019-02-26T21:20:25.730Z,9.63
2019-02-26T21:22:54.856Z,10.40
2019-02-26T21:25:24.018Z,10.07
2019-02-26T21:27:52.466Z,9.63
2019-02-26T21:30:21.947Z,9.67
2019-02-26T21:32:50.498Z,11.13
2019-02-26T21:35:20.565Z,10.33
2019-02-26T21:37:49.275Z,9.90
2019-02-26T21:40:20.195Z,11.50
2019-02-26T21:42:48.638Z,7.53
2019-02-26T21:45:19.803Z,7.10
2019-02-26T21:47:48.332Z,6.73
2019-02-26T21:50:17.087Z,4.77
2019-02-26T21:52:59.182Z,6.77
2019-02-26T21:55:17.338Z,6.10
2019-02-26T21:57:46.241Z,7.27
2019-02-26T22:00:20.329Z,5.80
2019-02-26T22:02:52.099Z,6.67
2019-02-26T22:05:19.620Z,5.03
2019-02-26T22:07:52.032Z,6.40
2019-02-26T22:10:22.359Z,6.33
2019-02-26T22:12:50.810Z,4.87
2019-02-26T22:15:19.323Z,6.00
2019-02-26T22:17:47.846Z,6.60
2019-02-26T22:20:26.576Z,6.47
2019-02-26T22:22:48.021Z,3.83
2019-02-26T22:25:17.454Z,4.10
2019-02-26T22:27:46.134Z,4.70
2019-02-26T22:30:22.062Z,4.30
2019-02-26T22:32:49.579Z,6.47
2019-02-26T22:35:18.030Z,5.37
2019-02-26T22:37:46.539Z,4.47
2019-02-26T22:40:15.545Z,6.70
2019-02-26T22:42:43.996Z,11.97
2019-02-26T22:45:16.326Z,12.73
2019-02-26T22:47:44.949Z,17.67
2019-02-26T22:50:14.914Z,26.60
2019-02-26T22:52:43.441Z,27.63
2019-02-26T22:55:16.495Z,18.90
2019-02-26T22:57:44.104Z,22.30
2019-02-26T23:00:48.325Z,21.07
2019-02-26T23:03:14.494Z,19.47
2019-02-26T23:05:43.075Z,17.23
2019-02-26T23:08:12.456Z,17.43
2019-02-26T23:10:41.249Z,9.43
2019-02-26T23:13:09.974Z,8.40
2019-02-26T23:15:38.680Z,9.07
2019-02-26T23:18:07.641Z,6.87
2019-02-26T23:20:36.820Z,6.53
2019-02-26T23:23:05.614Z,6.47
2019-02-26T23:25:36.068Z,5.53
2019-02-26T23:28:04.767Z,8.07
2019-02-26T23:30:33.516Z,7.30
2019-02-26T23:33:02.207Z,6.87
2019-02-26T23:35:30.881Z,6.73
2019-02-26T23:37:59.374Z,5.20
2019-02-26T23:40:28.117Z,7.30
2019-02-26T23:42:57.261Z,7.03
2019-02-26T23:45:25.797Z,5.73
2019-02-26T23:47:54.243Z,6.40
2019-02-26T23:50:22.692Z,9.30
2019-02-26T23:52:51.162Z,6.90
2019-02-26T23:55:19.606Z,5.70
2019-02-26T23:57:48.119Z,6.60
